sensor_id;sensor_type;location;lat;lon;timestamp;P1;durP1;ratioP1;P2;durP2;ratioP2
39032;SDS011;24794;51.982;5.878;2024-01-30T00:00:16;9.02;;;6.70;;
39032;SDS011;24794;51.982;5.878;2024-01-30T00:01:17;10.50;;;6.93;;
39032;SDS011;24794;51.982;5.878;2024-01-30T00:02:17;8.57;;;6.30;;
39032;SDS011;24794;51.982;5.878;2024-01-30T00:03:18;8.38;;;6.35;;
39032;SDS011;24794;51.982;5.878;2024-01-30T00:04:18;8.88;;;6.22;;
39032;SDS011;24794;51.982;5.878;2024-01-30T00:05:19;9.93;;;6.28;;
39032;SDS011;24794;51.982;5.878;2024-01-30T00:06:20;10.05;;;6.55;;
39032;SDS011;24794;51.982;5.878;2024-01-30T00:07:23;10.50;;;6.75;;
39032;SDS011;24794;51.982;5.878;2024-01-30T00:08:24;9.55;;;6.28;;
39032;SDS011;24794;51.982;5.878;2024-01-30T00:09:24;12.63;;;6.63;;
39032;SDS011;24794;51.982;5.878;2024-01-30T00:10:25;9.80;;;6.40;;
39032;SDS011;24794;51.982;5.878;2024-01-30T00:11:25;8.93;;;6.55;;
39032;SDS011;24794;51.982;5.878;2024-01-30T00:12:26;8.80;;;5.97;;
39032;SDS011;24794;51.982;5.878;2024-01-30T00:13:26;9.30;;;6.18;;
39032;SDS011;24794;51.982;5.878;2024-01-30T00:14:27;7.97;;;5.97;;
39032;SDS011;24794;51.982;5.878;2024-01-30T00:15:27;10.18;;;5.70;;
39032;SDS011;24794;51.982;5.878;2024-01-30T00:16:28;7.90;;;6.13;;
39032;SDS011;24794;51.982;5.878;2024-01-30T00:17:29;8.85;;;6.32;;
39032;SDS011;24794;51.982;5.878;2024-01-30T00:18:29;7.47;;;6.13;;
39032;SDS011;24794;51.982;5.878;2024-01-30T00:19:30;9.45;;;5.97;;
39032;SDS011;24794;51.982;5.878;2024-01-30T00:20:30;7.85;;;5.78;;
39032;SDS011;24794;51.982;5.878;2024-01-30T00:21:31;8.52;;;5.95;;
39032;SDS011;24794;51.982;5.878;2024-01-30T00:22:31;9.18;;;6.03;;
39032;SDS011;24794;51.982;5.878;2024-01-30T00:23:32;7.97;;;5.90;;
39032;SDS011;24794;51.982;5.878;2024-01-30T00:24:32;7.93;;;5.90;;
39032;SDS011;24794;51.982;5.878;2024-01-30T00:25:33;9.00;;;6.35;;
39032;SDS011;24794;51.982;5.878;2024-01-30T00:26:34;8.73;;;6.28;;
39032;SDS011;24794;51.982;5.878;2024-01-30T00:27:34;7.30;;;5.50;;
39032;SDS011;24794;51.982;5.878;2024-01-30T00:28:35;7.70;;;5.60;;
39032;SDS011;24794;51.982;5.878;2024-01-30T00:29:35;8.82;;;5.90;;
39032;SDS011;24794;51.982;5.878;2024-01-30T00:30:36;6.90;;;5.03;;
39032;SDS011;24794;51.982;5.878;2024-01-30T00:31:36;11.38;;;6.75;;
39032;SDS011;24794;51.982;5.878;2024-01-30T00:32:37;7.80;;;5.72;;
39032;SDS011;24794;51.982;5.878;2024-01-30T00:33:40;8.23;;;5.47;;
39032;SDS011;24794;51.982;5.878;2024-01-30T00:34:41;9.85;;;6.07;;
39032;SDS011;24794;51.982;5.878;2024-01-30T00:35:42;8.13;;;5.60;;
39032;SDS011;24794;51.982;5.878;2024-01-30T00:36:43;9.98;;;5.63;;
39032;SDS011;24794;51.982;5.878;2024-01-30T00:37:43;7.63;;;5.90;;
39032;SDS011;24794;51.982;5.878;2024-01-30T00:38:44;8.10;;;6.05;;
39032;SDS011;24794;51.982;5.878;2024-01-30T00:39:44;7.93;;;5.65;;
39032;SDS011;24794;51.982;5.878;2024-01-30T00:40:45;8.18;;;6.03;;
39032;SDS011;24794;51.982;5.878;2024-01-30T00:41:45;9.98;;;5.72;;
39032;SDS011;24794;51.982;5.878;2024-01-30T00:42:46;8.23;;;5.80;;
39032;SDS011;24794;51.982;5.878;2024-01-30T00:43:46;9.00;;;6.00;;
39032;SDS011;24794;51.982;5.878;2024-01-30T00:44:47;7.75;;;5.63;;
39032;SDS011;24794;51.982;5.878;2024-01-30T00:45:48;9.18;;;5.80;;
39032;SDS011;24794;51.982;5.878;2024-01-30T00:46:48;8.52;;;5.90;;
39032;SDS011;24794;51.982;5.878;2024-01-30T00:47:49;9.98;;;6.15;;
39032;SDS011;24794;51.982;5.878;2024-01-30T00:48:49;6.90;;;5.63;;
39032;SDS011;24794;51.982;5.878;2024-01-30T00:49:50;8.15;;;5.75;;
39032;SDS011;24794;51.982;5.878;2024-01-30T00:50:50;8.43;;;6.15;;
39032;SDS011;24794;51.982;5.878;2024-01-30T00:51:51;7.85;;;5.97;;
39032;SDS011;24794;51.982;5.878;2024-01-30T00:52:51;8.75;;;5.20;;
39032;SDS011;24794;51.982;5.878;2024-01-30T00:53:52;6.70;;;5.22;;
39032;SDS011;24794;51.982;5.878;2024-01-30T00:54:52;7.65;;;5.60;;
39032;SDS011;24794;51.982;5.878;2024-01-30T00:55:53;8.40;;;5.85;;
39032;SDS011;24794;51.982;5.878;2024-01-30T00:56:53;8.68;;;5.68;;
39032;SDS011;24794;51.982;5.878;2024-01-30T00:57:54;8.55;;;5.50;;
39032;SDS011;24794;51.982;5.878;2024-01-30T00:58:55;7.97;;;5.85;;
39032;SDS011;24794;51.982;5.878;2024-01-30T00:59:56;9.85;;;5.90;;
39032;SDS011;24794;51.982;5.878;2024-01-30T01:00:57;7.40;;;5.70;;
39032;SDS011;24794;51.982;5.878;2024-01-30T01:01:57;10.48;;;6.07;;
39032;SDS011;24794;51.982;5.878;2024-01-30T01:02:58;8.23;;;5.40;;
39032;SDS011;24794;51.982;5.878;2024-01-30T01:03:59;7.20;;;5.40;;
39032;SDS011;24794;51.982;5.878;2024-01-30T01:04:59;9.18;;;5.97;;
39032;SDS011;24794;51.982;5.878;2024-01-30T01:06:00;8.15;;;5.80;;
39032;SDS011;24794;51.982;5.878;2024-01-30T01:07:00;8.18;;;5.82;;
39032;SDS011;24794;51.982;5.878;2024-01-30T01:08:01;7.45;;;5.38;;
39032;SDS011;24794;51.982;5.878;2024-01-30T01:09:02;8.27;;;5.93;;
39032;SDS011;24794;51.982;5.878;2024-01-30T01:10:03;9.88;;;6.05;;
39032;SDS011;24794;51.982;5.878;2024-01-30T01:11:04;7.28;;;5.15;;
39032;SDS011;24794;51.982;5.878;2024-01-30T01:12:05;8.68;;;5.45;;
39032;SDS011;24794;51.982;5.878;2024-01-30T01:13:06;8.18;;;5.35;;
39032;SDS011;24794;51.982;5.878;2024-01-30T01:14:06;7.20;;;5.45;;
39032;SDS011;24794;51.982;5.878;2024-01-30T01:15:07;9.95;;;5.60;;
39032;SDS011;24794;51.982;5.878;2024-01-30T01:16:11;7.57;;;5.43;;
39032;SDS011;24794;51.982;5.878;2024-01-30T01:17:11;7.65;;;5.22;;
39032;SDS011;24794;51.982;5.878;2024-01-30T01:18:12;10.70;;;5.70;;
39032;SDS011;24794;51.982;5.878;2024-01-30T01:19:13;9.52;;;6.10;;
39032;SDS011;24794;51.982;5.878;2024-01-30T01:20:13;10.20;;;5.85;;
39032;SDS011;24794;51.982;5.878;2024-01-30T01:21:14;8.75;;;5.50;;
39032;SDS011;24794;51.982;5.878;2024-01-30T01:22:15;8.55;;;5.32;;
39032;SDS011;24794;51.982;5.878;2024-01-30T01:23:16;7.05;;;5.53;;
39032;SDS011;24794;51.982;5.878;2024-01-30T01:24:16;7.05;;;5.43;;
39032;SDS011;24794;51.982;5.878;2024-01-30T01:25:17;8.43;;;5.95;;
39032;SDS011;24794;51.982;5.878;2024-01-30T01:26:17;10.23;;;5.70;;
39032;SDS011;24794;51.982;5.878;2024-01-30T01:27:18;8.18;;;5.70;;
39032;SDS011;24794;51.982;5.878;2024-01-30T01:28:18;8.80;;;5.75;;
39032;SDS011;24794;51.982;5.878;2024-01-30T01:29:19;9.30;;;5.60;;
39032;SDS011;24794;51.982;5.878;2024-01-30T01:30:20;9.68;;;5.57;;
39032;SDS011;24794;51.982;5.878;2024-01-30T01:31:21;7.30;;;5.60;;
39032;SDS011;24794;51.982;5.878;2024-01-30T01:32:24;7.90;;;5.53;;
39032;SDS011;24794;51.982;5.878;2024-01-30T01:33:25;8.52;;;5.82;;
39032;SDS011;24794;51.982;5.878;2024-01-30T01:34:25;8.60;;;6.00;;
39032;SDS011;24794;51.982;5.878;2024-01-30T01:35:26;8.60;;;5.93;;
39032;SDS011;24794;51.982;5.878;2024-01-30T01:36:27;8.60;;;5.38;;
39032;SDS011;24794;51.982;5.878;2024-01-30T01:37:28;8.80;;;5.65;;
39032;SDS011;24794;51.982;5.878;2024-01-30T01:38:28;7.93;;;5.88;;
39032;SDS011;24794;51.982;5.878;2024-01-30T01:39:29;7.50;;;5.30;;
39032;SDS011;24794;51.982;5.878;2024-01-30T01:40:30;8.98;;;5.65;;
39032;SDS011;24794;51.982;5.878;2024-01-30T01:41:31;8.27;;;5.57;;
39032;SDS011;24794;51.982;5.878;2024-01-30T01:42:32;8.93;;;6.70;;
39032;SDS011;24794;51.982;5.878;2024-01-30T01:43:32;8.93;;;5.90;;
39032;SDS011;24794;51.982;5.878;2024-01-30T01:44:33;7.95;;;5.50;;
39032;SDS011;24794;51.982;5.878;2024-01-30T01:45:33;7.72;;;5.90;;
39032;SDS011;24794;51.982;5.878;2024-01-30T01:46:34;9.85;;;5.65;;
39032;SDS011;24794;51.982;5.878;2024-01-30T01:47:35;9.32;;;6.00;;
39032;SDS011;24794;51.982;5.878;2024-01-30T01:48:36;9.18;;;5.68;;
39032;SDS011;24794;51.982;5.878;2024-01-30T01:49:37;7.10;;;5.20;;
39032;SDS011;24794;51.982;5.878;2024-01-30T01:50:38;8.43;;;5.60;;
39032;SDS011;24794;51.982;5.878;2024-01-30T01:51:39;9.05;;;6.05;;
39032;SDS011;24794;51.982;5.878;2024-01-30T01:52:41;9.07;;;5.97;;
39032;SDS011;24794;51.982;5.878;2024-01-30T01:53:41;7.20;;;5.60;;
39032;SDS011;24794;51.982;5.878;2024-01-30T01:54:42;9.85;;;5.75;;
39032;SDS011;24794;51.982;5.878;2024-01-30T01:55:43;7.97;;;5.60;;
39032;SDS011;24794;51.982;5.878;2024-01-30T01:56:45;11.15;;;5.65;;
39032;SDS011;24794;51.982;5.878;2024-01-30T01:57:46;8.43;;;5.90;;
39032;SDS011;24794;51.982;5.878;2024-01-30T01:58:47;7.97;;;5.93;;
39032;SDS011;24794;51.982;5.878;2024-01-30T01:59:49;8.00;;;5.80;;
39032;SDS011;24794;51.982;5.878;2024-01-30T02:00:50;8.10;;;5.85;;
39032;SDS011;24794;51.982;5.878;2024-01-30T02:01:52;8.85;;;6.20;;
39032;SDS011;24794;51.982;5.878;2024-01-30T02:02:54;9.45;;;5.80;;
39032;SDS011;24794;51.982;5.878;2024-01-30T02:03:55;7.78;;;5.55;;
39032;SDS011;24794;51.982;5.878;2024-01-30T02:04:56;7.22;;;5.30;;
39032;SDS011;24794;51.982;5.878;2024-01-30T02:05:58;7.95;;;5.88;;
39032;SDS011;24794;51.982;5.878;2024-01-30T02:06:58;8.40;;;5.55;;
39032;SDS011;24794;51.982;5.878;2024-01-30T02:07:59;8.85;;;6.03;;
39032;SDS011;24794;51.982;5.878;2024-01-30T02:09:00;8.27;;;5.70;;
39032;SDS011;24794;51.982;5.878;2024-01-30T02:10:01;7.40;;;5.35;;
39032;SDS011;24794;51.982;5.878;2024-01-30T02:11:01;8.40;;;5.47;;
39032;SDS011;24794;51.982;5.878;2024-01-30T02:12:02;8.25;;;5.90;;
39032;SDS011;24794;51.982;5.878;2024-01-30T02:13:03;8.23;;;6.15;;
39032;SDS011;24794;51.982;5.878;2024-01-30T02:14:04;8.50;;;5.47;;
39032;SDS011;24794;51.982;5.878;2024-01-30T02:15:05;7.30;;;5.70;;
39032;SDS011;24794;51.982;5.878;2024-01-30T02:16:07;8.48;;;6.28;;
39032;SDS011;24794;51.982;5.878;2024-01-30T02:17:07;8.95;;;5.97;;
39032;SDS011;24794;51.982;5.878;2024-01-30T02:18:08;7.85;;;5.65;;
39032;SDS011;24794;51.982;5.878;2024-01-30T02:19:09;10.15;;;5.47;;
39032;SDS011;24794;51.982;5.878;2024-01-30T02:20:09;8.23;;;5.78;;
39032;SDS011;24794;51.982;5.878;2024-01-30T02:21:10;9.43;;;6.32;;
39032;SDS011;24794;51.982;5.878;2024-01-30T02:22:12;9.15;;;5.88;;
39032;SDS011;24794;51.982;5.878;2024-01-30T02:23:13;8.32;;;5.85;;
39032;SDS011;24794;51.982;5.878;2024-01-30T02:24:16;7.40;;;5.80;;
39032;SDS011;24794;51.982;5.878;2024-01-30T02:25:16;7.20;;;5.70;;
39032;SDS011;24794;51.982;5.878;2024-01-30T02:26:17;9.10;;;6.30;;
39032;SDS011;24794;51.982;5.878;2024-01-30T02:27:17;9.88;;;6.38;;
39032;SDS011;24794;51.982;5.878;2024-01-30T02:28:18;8.38;;;6.20;;
39032;SDS011;24794;51.982;5.878;2024-01-30T02:29:19;9.38;;;5.95;;
39032;SDS011;24794;51.982;5.878;2024-01-30T02:30:19;8.20;;;6.40;;
39032;SDS011;24794;51.982;5.878;2024-01-30T02:31:20;7.43;;;5.63;;
39032;SDS011;24794;51.982;5.878;2024-01-30T02:32:20;10.25;;;5.95;;
39032;SDS011;24794;51.982;5.878;2024-01-30T02:33:21;10.25;;;7.03;;
39032;SDS011;24794;51.982;5.878;2024-01-30T02:34:23;9.25;;;6.40;;
39032;SDS011;24794;51.982;5.878;2024-01-30T02:35:23;7.63;;;6.10;;
39032;SDS011;24794;51.982;5.878;2024-01-30T02:36:24;9.52;;;6.22;;
39032;SDS011;24794;51.982;5.878;2024-01-30T02:37:24;8.50;;;6.38;;
39032;SDS011;24794;51.982;5.878;2024-01-30T02:38:25;9.23;;;6.00;;
39032;SDS011;24794;51.982;5.878;2024-01-30T02:39:26;12.38;;;7.20;;
39032;SDS011;24794;51.982;5.878;2024-01-30T02:40:27;8.48;;;6.63;;
39032;SDS011;24794;51.982;5.878;2024-01-30T02:41:27;10.85;;;7.40;;
39032;SDS011;24794;51.982;5.878;2024-01-30T02:42:28;10.90;;;7.22;;
39032;SDS011;24794;51.982;5.878;2024-01-30T02:43:28;11.82;;;7.97;;
39032;SDS011;24794;51.982;5.878;2024-01-30T02:44:29;9.40;;;6.53;;
39032;SDS011;24794;51.982;5.878;2024-01-30T02:45:30;10.93;;;6.72;;
39032;SDS011;24794;51.982;5.878;2024-01-30T02:46:30;9.63;;;6.47;;
39032;SDS011;24794;51.982;5.878;2024-01-30T02:47:31;10.63;;;7.07;;
39032;SDS011;24794;51.982;5.878;2024-01-30T02:48:31;9.35;;;6.70;;
39032;SDS011;24794;51.982;5.878;2024-01-30T02:49:32;10.57;;;6.55;;
39032;SDS011;24794;51.982;5.878;2024-01-30T02:50:32;8.80;;;6.30;;
39032;SDS011;24794;51.982;5.878;2024-01-30T02:51:33;8.32;;;6.38;;
39032;SDS011;24794;51.982;5.878;2024-01-30T02:52:34;8.68;;;6.47;;
39032;SDS011;24794;51.982;5.878;2024-01-30T02:53:34;8.25;;;6.30;;
39032;SDS011;24794;51.982;5.878;2024-01-30T02:54:35;9.52;;;6.82;;
39032;SDS011;24794;51.982;5.878;2024-01-30T02:55:36;10.25;;;7.03;;
39032;SDS011;24794;51.982;5.878;2024-01-30T02:56:36;10.85;;;6.65;;
39032;SDS011;24794;51.982;5.878;2024-01-30T02:57:37;8.80;;;7.20;;
39032;SDS011;24794;51.982;5.878;2024-01-30T02:58:39;8.30;;;6.60;;
39032;SDS011;24794;51.982;5.878;2024-01-30T02:59:40;11.32;;;7.20;;
39032;SDS011;24794;51.982;5.878;2024-01-30T03:00:41;8.48;;;6.38;;
39032;SDS011;24794;51.982;5.878;2024-01-30T03:01:43;10.98;;;6.68;;
39032;SDS011;24794;51.982;5.878;2024-01-30T03:02:44;9.93;;;7.20;;
39032;SDS011;24794;51.982;5.878;2024-01-30T03:03:44;9.48;;;6.75;;
39032;SDS011;24794;51.982;5.878;2024-01-30T03:04:45;9.48;;;6.97;;
39032;SDS011;24794;51.982;5.878;2024-01-30T03:05:46;9.93;;;6.85;;
39032;SDS011;24794;51.982;5.878;2024-01-30T03:06:47;9.27;;;6.80;;
39032;SDS011;24794;51.982;5.878;2024-01-30T03:07:47;9.75;;;7.00;;
39032;SDS011;24794;51.982;5.878;2024-01-30T03:08:48;10.00;;;6.47;;
39032;SDS011;24794;51.982;5.878;2024-01-30T03:09:49;9.60;;;6.70;;
39032;SDS011;24794;51.982;5.878;2024-01-30T03:10:49;9.85;;;6.65;;
39032;SDS011;24794;51.982;5.878;2024-01-30T03:11:50;9.45;;;7.18;;
39032;SDS011;24794;51.982;5.878;2024-01-30T03:12:50;9.63;;;6.97;;
39032;SDS011;24794;51.982;5.878;2024-01-30T03:13:51;9.75;;;6.60;;
39032;SDS011;24794;51.982;5.878;2024-01-30T03:14:51;9.73;;;7.25;;
39032;SDS011;24794;51.982;5.878;2024-01-30T03:15:52;10.23;;;6.68;;
39032;SDS011;24794;51.982;5.878;2024-01-30T03:16:53;9.75;;;6.38;;
39032;SDS011;24794;51.982;5.878;2024-01-30T03:17:53;12.07;;;7.75;;
39032;SDS011;24794;51.982;5.878;2024-01-30T03:18:54;8.98;;;6.40;;
39032;SDS011;24794;51.982;5.878;2024-01-30T03:19:54;11.82;;;7.45;;
39032;SDS011;24794;51.982;5.878;2024-01-30T03:20:55;9.55;;;7.07;;
39032;SDS011;24794;51.982;5.878;2024-01-30T03:21:55;10.65;;;7.15;;
39032;SDS011;24794;51.982;5.878;2024-01-30T03:22:56;11.48;;;7.38;;
39032;SDS011;24794;51.982;5.878;2024-01-30T03:23:56;12.35;;;7.30;;
39032;SDS011;24794;51.982;5.878;2024-01-30T03:24:57;9.80;;;6.82;;
39032;SDS011;24794;51.982;5.878;2024-01-30T03:25:57;10.68;;;6.93;;
39032;SDS011;24794;51.982;5.878;2024-01-30T03:26:58;10.93;;;7.03;;
39032;SDS011;24794;51.982;5.878;2024-01-30T03:27:59;9.77;;;7.53;;
39032;SDS011;24794;51.982;5.878;2024-01-30T03:29:00;8.70;;;6.97;;
39032;SDS011;24794;51.982;5.878;2024-01-30T03:30:00;10.48;;;7.18;;
39032;SDS011;24794;51.982;5.878;2024-01-30T03:31:01;9.10;;;6.53;;
39032;SDS011;24794;51.982;5.878;2024-01-30T03:32:01;9.10;;;6.53;;
39032;SDS011;24794;51.982;5.878;2024-01-30T03:33:04;10.60;;;7.35;;
39032;SDS011;24794;51.982;5.878;2024-01-30T03:34:04;9.35;;;6.28;;
39032;SDS011;24794;51.982;5.878;2024-01-30T03:35:05;11.48;;;7.60;;
39032;SDS011;24794;51.982;5.878;2024-01-30T03:36:06;8.55;;;6.40;;
39032;SDS011;24794;51.982;5.878;2024-01-30T03:37:07;10.77;;;6.97;;
39032;SDS011;24794;51.982;5.878;2024-01-30T03:38:08;10.10;;;6.80;;
39032;SDS011;24794;51.982;5.878;2024-01-30T03:39:08;13.63;;;7.63;;
39032;SDS011;24794;51.982;5.878;2024-01-30T03:40:09;9.10;;;6.97;;
39032;SDS011;24794;51.982;5.878;2024-01-30T03:41:10;12.45;;;7.35;;
39032;SDS011;24794;51.982;5.878;2024-01-30T03:42:11;9.30;;;7.30;;
39032;SDS011;24794;51.982;5.878;2024-01-30T03:43:11;10.40;;;6.60;;
39032;SDS011;24794;51.982;5.878;2024-01-30T03:44:12;9.65;;;7.00;;
39032;SDS011;24794;51.982;5.878;2024-01-30T03:45:12;9.40;;;6.50;;
39032;SDS011;24794;51.982;5.878;2024-01-30T03:46:13;10.80;;;7.25;;
39032;SDS011;24794;51.982;5.878;2024-01-30T03:47:13;10.48;;;6.78;;
39032;SDS011;24794;51.982;5.878;2024-01-30T03:48:14;10.90;;;7.25;;
39032;SDS011;24794;51.982;5.878;2024-01-30T03:49:15;11.27;;;7.07;;
39032;SDS011;24794;51.982;5.878;2024-01-30T03:50:15;9.98;;;6.65;;
39032;SDS011;24794;51.982;5.878;2024-01-30T03:51:16;9.10;;;6.38;;
39032;SDS011;24794;51.982;5.878;2024-01-30T03:52:16;10.02;;;6.72;;
39032;SDS011;24794;51.982;5.878;2024-01-30T03:53:17;10.13;;;6.95;;
39032;SDS011;24794;51.982;5.878;2024-01-30T03:54:18;9.55;;;6.38;;
39032;SDS011;24794;51.982;5.878;2024-01-30T03:55:18;10.82;;;7.03;;
39032;SDS011;24794;51.982;5.878;2024-01-30T03:56:19;10.48;;;6.93;;
39032;SDS011;24794;51.982;5.878;2024-01-30T03:57:19;10.85;;;6.80;;
39032;SDS011;24794;51.982;5.878;2024-01-30T03:58:20;8.48;;;6.03;;
39032;SDS011;24794;51.982;5.878;2024-01-30T03:59:21;8.98;;;6.65;;
39032;SDS011;24794;51.982;5.878;2024-01-30T04:00:24;10.25;;;6.30;;
39032;SDS011;24794;51.982;5.878;2024-01-30T04:01:24;12.00;;;7.15;;
39032;SDS011;24794;51.982;5.878;2024-01-30T04:02:25;9.95;;;6.60;;
39032;SDS011;24794;51.982;5.878;2024-01-30T04:03:25;9.40;;;6.43;;
39032;SDS011;24794;51.982;5.878;2024-01-30T04:04:26;10.85;;;6.78;;
39032;SDS011;24794;51.982;5.878;2024-01-30T04:05:27;11.23;;;7.10;;
39032;SDS011;24794;51.982;5.878;2024-01-30T04:06:27;10.52;;;6.70;;
39032;SDS011;24794;51.982;5.878;2024-01-30T04:07:28;10.30;;;6.68;;
39032;SDS011;24794;51.982;5.878;2024-01-30T04:08:29;9.85;;;6.50;;
39032;SDS011;24794;51.982;5.878;2024-01-30T04:09:29;9.50;;;6.65;;
39032;SDS011;24794;51.982;5.878;2024-01-30T04:10:30;10.43;;;6.75;;
39032;SDS011;24794;51.982;5.878;2024-01-30T04:11:30;8.57;;;5.93;;
39032;SDS011;24794;51.982;5.878;2024-01-30T04:12:31;9.32;;;6.38;;
39032;SDS011;24794;51.982;5.878;2024-01-30T04:13:32;9.50;;;6.30;;
39032;SDS011;24794;51.982;5.878;2024-01-30T04:14:33;9.02;;;6.35;;
39032;SDS011;24794;51.982;5.878;2024-01-30T04:15:34;9.63;;;6.72;;
39032;SDS011;24794;51.982;5.878;2024-01-30T04:16:35;11.25;;;7.15;;
39032;SDS011;24794;51.982;5.878;2024-01-30T04:17:36;9.68;;;6.85;;
39032;SDS011;24794;51.982;5.878;2024-01-30T04:18:36;10.95;;;6.57;;
39032;SDS011;24794;51.982;5.878;2024-01-30T04:19:37;10.23;;;6.82;;
39032;SDS011;24794;51.982;5.878;2024-01-30T04:20:38;10.13;;;6.88;;
39032;SDS011;24794;51.982;5.878;2024-01-30T04:21:39;9.57;;;6.55;;
39032;SDS011;24794;51.982;5.878;2024-01-30T04:22:39;8.70;;;6.40;;
39032;SDS011;24794;51.982;5.878;2024-01-30T04:23:41;9.32;;;6.50;;
39032;SDS011;24794;51.982;5.878;2024-01-30T04:24:41;9.10;;;6.43;;
39032;SDS011;24794;51.982;5.878;2024-01-30T04:25:42;11.68;;;7.13;;
39032;SDS011;24794;51.982;5.878;2024-01-30T04:26:42;9.52;;;5.95;;
39032;SDS011;24794;51.982;5.878;2024-01-30T04:27:43;10.50;;;6.63;;
39032;SDS011;24794;51.982;5.878;2024-01-30T04:28:44;8.52;;;6.60;;
39032;SDS011;24794;51.982;5.878;2024-01-30T04:29:45;10.38;;;6.70;;
39032;SDS011;24794;51.982;5.878;2024-01-30T04:30:45;8.02;;;6.13;;
39032;SDS011;24794;51.982;5.878;2024-01-30T04:31:46;10.43;;;6.65;;
39032;SDS011;24794;51.982;5.878;2024-01-30T04:32:46;9.45;;;6.40;;
39032;SDS011;24794;51.982;5.878;2024-01-30T04:33:47;9.55;;;6.20;;
39032;SDS011;24794;51.982;5.878;2024-01-30T04:34:48;10.95;;;6.32;;
39032;SDS011;24794;51.982;5.878;2024-01-30T04:35:48;8.52;;;6.35;;
39032;SDS011;24794;51.982;5.878;2024-01-30T04:36:49;8.85;;;6.53;;
39032;SDS011;24794;51.982;5.878;2024-01-30T04:37:51;8.55;;;6.07;;
39032;SDS011;24794;51.982;5.878;2024-01-30T04:38:52;9.82;;;6.13;;
39032;SDS011;24794;51.982;5.878;2024-01-30T04:39:52;9.43;;;6.47;;
39032;SDS011;24794;51.982;5.878;2024-01-30T04:40:53;9.93;;;6.55;;
39032;SDS011;24794;51.982;5.878;2024-01-30T04:41:54;10.55;;;6.70;;
39032;SDS011;24794;51.982;5.878;2024-01-30T04:42:55;10.02;;;6.25;;
39032;SDS011;24794;51.982;5.878;2024-01-30T04:43:55;9.88;;;6.88;;
39032;SDS011;24794;51.982;5.878;2024-01-30T04:44:56;10.32;;;6.70;;
39032;SDS011;24794;51.982;5.878;2024-01-30T04:45:56;9.20;;;6.25;;
39032;SDS011;24794;51.982;5.878;2024-01-30T04:46:57;10.50;;;6.68;;
39032;SDS011;24794;51.982;5.878;2024-01-30T04:48:01;8.15;;;6.60;;
39032;SDS011;24794;51.982;5.878;2024-01-30T04:49:01;9.30;;;7.20;;
39032;SDS011;24794;51.982;5.878;2024-01-30T04:50:03;9.48;;;6.55;;
39032;SDS011;24794;51.982;5.878;2024-01-30T04:51:04;9.77;;;6.43;;
39032;SDS011;24794;51.982;5.878;2024-01-30T04:52:08;8.63;;;5.90;;
39032;SDS011;24794;51.982;5.878;2024-01-30T04:53:09;9.38;;;6.88;;
39032;SDS011;24794;51.982;5.878;2024-01-30T04:54:09;10.32;;;6.13;;
39032;SDS011;24794;51.982;5.878;2024-01-30T04:55:10;10.63;;;6.50;;
39032;SDS011;24794;51.982;5.878;2024-01-30T04:56:11;8.80;;;6.32;;
39032;SDS011;24794;51.982;5.878;2024-01-30T04:57:11;10.00;;;6.65;;
39032;SDS011;24794;51.982;5.878;2024-01-30T04:58:12;9.23;;;6.40;;
39032;SDS011;24794;51.982;5.878;2024-01-30T04:59:12;6.95;;;5.75;;
39032;SDS011;24794;51.982;5.878;2024-01-30T05:00:13;9.95;;;6.85;;
39032;SDS011;24794;51.982;5.878;2024-01-30T05:01:17;9.35;;;6.22;;
39032;SDS011;24794;51.982;5.878;2024-01-30T05:02:17;9.65;;;6.68;;
39032;SDS011;24794;51.982;5.878;2024-01-30T05:03:19;9.40;;;6.60;;
39032;SDS011;24794;51.982;5.878;2024-01-30T05:04:19;9.52;;;6.55;;
39032;SDS011;24794;51.982;5.878;2024-01-30T05:05:20;9.05;;;6.82;;
39032;SDS011;24794;51.982;5.878;2024-01-30T05:06:25;11.15;;;6.55;;
39032;SDS011;24794;51.982;5.878;2024-01-30T05:07:26;9.70;;;6.95;;
39032;SDS011;24794;51.982;5.878;2024-01-30T05:08:27;10.57;;;6.63;;
39032;SDS011;24794;51.982;5.878;2024-01-30T05:09:27;11.35;;;7.10;;
39032;SDS011;24794;51.982;5.878;2024-01-30T05:10:28;10.25;;;6.57;;
39032;SDS011;24794;51.982;5.878;2024-01-30T05:11:29;8.40;;;6.40;;
39032;SDS011;24794;51.982;5.878;2024-01-30T05:12:30;9.18;;;6.68;;
39032;SDS011;24794;51.982;5.878;2024-01-30T05:13:31;8.02;;;6.03;;
39032;SDS011;24794;51.982;5.878;2024-01-30T05:14:32;9.80;;;6.72;;
39032;SDS011;24794;51.982;5.878;2024-01-30T05:15:32;8.18;;;6.00;;
39032;SDS011;24794;51.982;5.878;2024-01-30T05:16:33;9.68;;;6.18;;
39032;SDS011;24794;51.982;5.878;2024-01-30T05:17:34;7.97;;;6.40;;
39032;SDS011;24794;51.982;5.878;2024-01-30T05:18:34;10.70;;;6.72;;
39032;SDS011;24794;51.982;5.878;2024-01-30T05:19:35;10.43;;;6.40;;
39032;SDS011;24794;51.982;5.878;2024-01-30T05:20:35;9.27;;;6.38;;
39032;SDS011;24794;51.982;5.878;2024-01-30T05:21:36;8.88;;;6.10;;
39032;SDS011;24794;51.982;5.878;2024-01-30T05:22:36;8.82;;;6.00;;
39032;SDS011;24794;51.982;5.878;2024-01-30T05:23:37;9.65;;;6.10;;
39032;SDS011;24794;51.982;5.878;2024-01-30T05:24:37;10.15;;;6.72;;
39032;SDS011;24794;51.982;5.878;2024-01-30T05:25:38;9.10;;;7.00;;
39032;SDS011;24794;51.982;5.878;2024-01-30T05:26:38;7.78;;;6.07;;
39032;SDS011;24794;51.982;5.878;2024-01-30T05:27:39;8.77;;;6.13;;
39032;SDS011;24794;51.982;5.878;2024-01-30T05:28:39;9.80;;;5.93;;
39032;SDS011;24794;51.982;5.878;2024-01-30T05:29:40;9.57;;;6.30;;
39032;SDS011;24794;51.982;5.878;2024-01-30T05:30:41;8.43;;;5.65;;
39032;SDS011;24794;51.982;5.878;2024-01-30T05:31:41;8.98;;;6.25;;
39032;SDS011;24794;51.982;5.878;2024-01-30T05:32:42;8.98;;;6.13;;
39032;SDS011;24794;51.982;5.878;2024-01-30T05:33:43;9.75;;;5.80;;
39032;SDS011;24794;51.982;5.878;2024-01-30T05:34:44;8.27;;;6.07;;
39032;SDS011;24794;51.982;5.878;2024-01-30T05:35:44;8.93;;;6.30;;
39032;SDS011;24794;51.982;5.878;2024-01-30T05:36:45;12.43;;;6.28;;
39032;SDS011;24794;51.982;5.878;2024-01-30T05:37:47;9.05;;;6.15;;
39032;SDS011;24794;51.982;5.878;2024-01-30T05:38:48;7.97;;;5.97;;
39032;SDS011;24794;51.982;5.878;2024-01-30T05:39:49;7.70;;;6.15;;
39032;SDS011;24794;51.982;5.878;2024-01-30T05:40:50;8.98;;;6.45;;
39032;SDS011;24794;51.982;5.878;2024-01-30T05:41:50;8.05;;;5.90;;
39032;SDS011;24794;51.982;5.878;2024-01-30T05:42:51;8.73;;;6.57;;
39032;SDS011;24794;51.982;5.878;2024-01-30T05:43:54;8.70;;;6.32;;
39032;SDS011;24794;51.982;5.878;2024-01-30T05:44:55;7.55;;;6.10;;
39032;SDS011;24794;51.982;5.878;2024-01-30T05:45:55;9.20;;;6.75;;
39032;SDS011;24794;51.982;5.878;2024-01-30T05:46:56;8.95;;;6.20;;
39032;SDS011;24794;51.982;5.878;2024-01-30T05:47:56;9.00;;;6.57;;
39032;SDS011;24794;51.982;5.878;2024-01-30T05:48:57;9.77;;;6.78;;
39032;SDS011;24794;51.982;5.878;2024-01-30T05:49:57;7.50;;;6.03;;
39032;SDS011;24794;51.982;5.878;2024-01-30T05:50:58;8.68;;;6.50;;
39032;SDS011;24794;51.982;5.878;2024-01-30T05:52:00;9.13;;;6.25;;
39032;SDS011;24794;51.982;5.878;2024-01-30T05:53:02;8.45;;;5.80;;
39032;SDS011;24794;51.982;5.878;2024-01-30T05:54:02;8.88;;;6.00;;
39032;SDS011;24794;51.982;5.878;2024-01-30T05:55:04;8.10;;;5.97;;
39032;SDS011;24794;51.982;5.878;2024-01-30T05:56:06;8.43;;;6.00;;
39032;SDS011;24794;51.982;5.878;2024-01-30T05:57:06;9.73;;;6.45;;
39032;SDS011;24794;51.982;5.878;2024-01-30T05:58:07;9.30;;;6.22;;
39032;SDS011;24794;51.982;5.878;2024-01-30T05:59:07;8.70;;;6.40;;
39032;SDS011;24794;51.982;5.878;2024-01-30T06:00:08;10.88;;;6.25;;
39032;SDS011;24794;51.982;5.878;2024-01-30T06:01:09;8.82;;;5.90;;
39032;SDS011;24794;51.982;5.878;2024-01-30T06:02:12;7.90;;;6.03;;
39032;SDS011;24794;51.982;5.878;2024-01-30T06:03:13;8.75;;;6.57;;
39032;SDS011;24794;51.982;5.878;2024-01-30T06:04:14;10.75;;;6.28;;
39032;SDS011;24794;51.982;5.878;2024-01-30T06:05:15;9.35;;;6.60;;